sensor_id;sensor_type;location;lat;lon;timestamp;P1;durP1;ratioP1;P2;durP2;ratioP2
69523;SDS011;56723;42.694;23.286;2023-04-25T05:31:51;13.27;;;11.13;;
69523;SDS011;56723;42.694;23.286;2023-04-25T05:34:18;12.77;;;9.90;;
69523;SDS011;56723;42.694;23.286;2023-04-25T05:36:58;12.00;;;9.27;;
69523;SDS011;56723;42.694;23.286;2023-04-25T05:39:25;11.38;;;9.32;;
69523;SDS011;56723;42.694;23.286;2023-04-25T05:41:52;10.63;;;8.82;;
69523;SDS011;56723;42.694;23.286;2023-04-25T05:44:44;11.93;;;8.48;;
69523;SDS011;56723;42.694;23.286;2023-04-25T05:47:21;9.68;;;7.13;;
69523;SDS011;56723;42.694;23.286;2023-04-25T05:50:14;12.52;;;7.82;;
69523;SDS011;56723;42.694;23.286;2023-04-25T05:52:51;8.48;;;6.88;;
69523;SDS011;56723;42.694;23.286;2023-04-25T05:55:41;7.47;;;5.75;;
69523;SDS011;56723;42.694;23.286;2023-04-25T05:58:23;8.98;;;6.60;;
69523;SDS011;56723;42.694;23.286;2023-04-25T06:00:50;9.15;;;6.30;;
69523;SDS011;56723;42.694;23.286;2023-04-25T06:03:18;8.38;;;6.90;;
69523;SDS011;56723;42.694;23.286;2023-04-25T06:05:47;12.15;;;8.52;;
69523;SDS011;56723;42.694;23.286;2023-04-25T06:08:14;15.27;;;10.68;;
69523;SDS011;56723;42.694;23.286;2023-04-25T06:10:41;13.15;;;9.95;;
69523;SDS011;56723;42.694;23.286;2023-04-25T06:19:40;15.30;;;10.13;;
69523;SDS011;56723;42.694;23.286;2023-04-25T06:22:07;14.45;;;10.23;;
69523;SDS011;56723;42.694;23.286;2023-04-25T06:24:37;14.73;;;11.27;;
69523;SDS011;56723;42.694;23.286;2023-04-25T06:27:05;16.58;;;12.32;;
69523;SDS011;56723;42.694;23.286;2023-04-25T06:29:33;15.15;;;10.38;;
69523;SDS011;56723;42.694;23.286;2023-04-25T06:32:00;19.63;;;12.40;;
69523;SDS011;56723;42.694;23.286;2023-04-25T06:34:28;15.50;;;10.90;;
69523;SDS011;56723;42.694;23.286;2023-04-25T06:36:55;16.42;;;12.35;;
69523;SDS011;56723;42.694;23.286;2023-04-25T06:39:22;16.05;;;12.13;;
69523;SDS011;56723;42.694;23.286;2023-04-25T06:41:51;12.32;;;10.20;;
69523;SDS011;56723;42.694;23.286;2023-04-25T06:44:38;14.88;;;9.30;;
69523;SDS011;56723;42.694;23.286;2023-04-25T06:47:08;13.40;;;9.85;;
69523;SDS011;56723;42.694;23.286;2023-04-25T06:49:35;11.05;;;7.90;;
69523;SDS011;56723;42.694;23.286;2023-04-25T06:52:02;8.10;;;7.15;;
69523;SDS011;56723;42.694;23.286;2023-04-25T06:54:29;10.68;;;7.28;;
69523;SDS011;56723;42.694;23.286;2023-04-25T06:57:14;8.45;;;6.38;;
69523;SDS011;56723;42.694;23.286;2023-04-25T06:59:42;12.32;;;8.15;;
69523;SDS011;56723;42.694;23.286;2023-04-25T07:02:09;10.07;;;7.80;;
69523;SDS011;56723;42.694;23.286;2023-04-25T07:04:37;11.63;;;6.50;;
69523;SDS011;56723;42.694;23.286;2023-04-25T07:07:05;10.70;;;6.97;;
69523;SDS011;56723;42.694;23.286;2023-04-25T07:09:42;9.85;;;7.00;;
69523;SDS011;56723;42.694;23.286;2023-04-25T07:12:10;11.25;;;7.03;;
69523;SDS011;56723;42.694;23.286;2023-04-25T07:14:37;12.75;;;7.85;;
69523;SDS011;56723;42.694;23.286;2023-04-25T07:17:05;14.67;;;8.30;;
69523;SDS011;56723;42.694;23.286;2023-04-25T07:19:33;10.80;;;7.90;;
69523;SDS011;56723;42.694;23.286;2023-04-25T07:22:01;12.90;;;8.20;;
69523;SDS011;56723;42.694;23.286;2023-04-25T07:24:30;11.07;;;7.90;;
69523;SDS011;56723;42.694;23.286;2023-04-25T07:26:58;12.15;;;8.18;;
69523;SDS011;56723;42.694;23.286;2023-04-25T07:29:48;13.40;;;8.70;;
69523;SDS011;56723;42.694;23.286;2023-04-25T07:32:15;11.38;;;7.50;;
69523;SDS011;56723;42.694;23.286;2023-04-25T07:34:42;11.95;;;8.15;;
69523;SDS011;56723;42.694;23.286;2023-04-25T07:37:09;12.95;;;8.50;;
69523;SDS011;56723;42.694;23.286;2023-04-25T07:39:48;11.32;;;7.82;;
69523;SDS011;56723;42.694;23.286;2023-04-25T07:42:15;9.70;;;6.55;;
69523;SDS011;56723;42.694;23.286;2023-04-25T07:44:43;13.70;;;8.73;;
69523;SDS011;56723;42.694;23.286;2023-04-25T07:47:12;9.90;;;8.18;;
69523;SDS011;56723;42.694;23.286;2023-04-25T07:49:41;14.60;;;10.80;;
69523;SDS011;56723;42.694;23.286;2023-04-25T07:52:11;19.05;;;10.23;;
69523;SDS011;56723;42.694;23.286;2023-04-25T07:54:45;12.30;;;8.40;;
69523;SDS011;56723;42.694;23.286;2023-04-25T07:57:18;10.63;;;7.95;;
69523;SDS011;56723;42.694;23.286;2023-04-25T07:59:47;11.43;;;6.82;;
69523;SDS011;56723;42.694;23.286;2023-04-25T08:02:16;11.57;;;6.30;;
69523;SDS011;56723;42.694;23.286;2023-04-25T08:04:44;12.65;;;8.07;;
69523;SDS011;56723;42.694;23.286;2023-04-25T08:07:15;12.93;;;8.73;;
69523;SDS011;56723;42.694;23.286;2023-04-25T08:09:52;12.35;;;8.48;;
69523;SDS011;56723;42.694;23.286;2023-04-25T08:12:29;12.30;;;7.63;;
69523;SDS011;56723;42.694;23.286;2023-04-25T08:14:57;13.43;;;8.75;;
69523;SDS011;56723;42.694;23.286;2023-04-25T08:17:29;9.15;;;7.57;;
69523;SDS011;56723;42.694;23.286;2023-04-25T08:19:56;10.32;;;7.65;;
69523;SDS011;56723;42.694;23.286;2023-04-25T08:22:29;12.60;;;8.00;;
69523;SDS011;56723;42.694;23.286;2023-04-25T08:25:17;4.38;;;2.63;;
69523;SDS011;56723;42.694;23.286;2023-04-25T08:27:45;10.18;;;6.13;;
69523;SDS011;56723;42.694;23.286;2023-04-25T08:30:12;4.68;;;3.42;;
69523;SDS011;56723;42.694;23.286;2023-04-25T08:32:41;2.80;;;1.38;;
69523;SDS011;56723;42.694;23.286;2023-04-25T08:35:36;4.43;;;1.95;;
69523;SDS011;56723;42.694;23.286;2023-04-25T08:38:03;5.05;;;2.17;;
69523;SDS011;56723;42.694;23.286;2023-04-25T08:40:31;5.65;;;3.90;;
69523;SDS011;56723;42.694;23.286;2023-04-25T08:43:14;5.53;;;4.53;;
69523;SDS011;56723;42.694;23.286;2023-04-25T08:45:42;6.65;;;5.78;;
69523;SDS011;56723;42.694;23.286;2023-04-25T08:48:17;6.22;;;3.72;;
69523;SDS011;56723;42.694;23.286;2023-04-25T08:50:54;6.43;;;2.95;;
69523;SDS011;56723;42.694;23.286;2023-04-25T08:53:25;3.10;;;1.65;;
69523;SDS011;56723;42.694;23.286;2023-04-25T08:56:00;4.18;;;1.65;;
69523;SDS011;56723;42.694;23.286;2023-04-25T08:58:33;4.90;;;1.80;;
69523;SDS011;56723;42.694;23.286;2023-04-25T09:01:01;4.70;;;1.30;;
69523;SDS011;56723;42.694;23.286;2023-04-25T09:03:32;4.88;;;1.40;;
69523;SDS011;56723;42.694;23.286;2023-04-25T09:06:00;4.28;;;2.33;;
69523;SDS011;56723;42.694;23.286;2023-04-25T09:08:27;5.85;;;2.00;;
69523;SDS011;56723;42.694;23.286;2023-04-25T09:10:55;5.20;;;2.05;;
69523;SDS011;56723;42.694;23.286;2023-04-25T09:13:25;4.93;;;2.20;;
69523;SDS011;56723;42.694;23.286;2023-04-25T09:16:18;3.60;;;1.85;;
69523;SDS011;56723;42.694;23.286;2023-04-25T09:19:21;5.43;;;2.22;;
69523;SDS011;56723;42.694;23.286;2023-04-25T09:22:06;6.20;;;2.47;;
69523;SDS011;56723;42.694;23.286;2023-04-25T09:24:36;6.63;;;1.90;;
69523;SDS011;56723;42.694;23.286;2023-04-25T09:27:04;2.60;;;1.53;;
69523;SDS011;56723;42.694;23.286;2023-04-25T09:29:35;5.55;;;2.40;;
69523;SDS011;56723;42.694;23.286;2023-04-25T09:32:12;4.78;;;3.25;;
69523;SDS011;56723;42.694;23.286;2023-04-25T09:34:53;3.00;;;1.13;;
69523;SDS011;56723;42.694;23.286;2023-04-25T09:37:28;1.92;;;0.50;;
69523;SDS011;56723;42.694;23.286;2023-04-25T09:40:15;0.82;;;0.40;;
69523;SDS011;56723;42.694;23.286;2023-04-25T09:42:59;0.95;;;0.30;;
69523;SDS011;56723;42.694;23.286;2023-04-25T09:45:29;1.38;;;0.25;;
69523;SDS011;56723;42.694;23.286;2023-04-25T09:48:02;2.45;;;0.98;;
69523;SDS011;56723;42.694;23.286;2023-04-25T09:50:36;2.92;;;1.65;;
69523;SDS011;56723;42.694;23.286;2023-04-25T09:53:07;4.05;;;1.73;;
69523;SDS011;56723;42.694;23.286;2023-04-25T09:56:03;2.58;;;1.40;;
69523;SDS011;56723;42.694;23.286;2023-04-25T09:58:32;1.80;;;1.08;;
69523;SDS011;56723;42.694;23.286;2023-04-25T10:01:01;3.33;;;1.52;;
69523;SDS011;56723;42.694;23.286;2023-04-25T10:06:24;2.83;;;0.80;;
69523;SDS011;56723;42.694;23.286;2023-04-25T10:08:53;5.07;;;1.00;;
69523;SDS011;56723;42.694;23.286;2023-04-25T10:11:23;1.33;;;0.60;;
69523;SDS011;56723;42.694;23.286;2023-04-25T10:13:52;2.38;;;0.80;;
69523;SDS011;56723;42.694;23.286;2023-04-25T10:16:19;0.88;;;0.32;;
69523;SDS011;56723;42.694;23.286;2023-04-25T10:18:48;1.03;;;0.40;;
69523;SDS011;56723;42.694;23.286;2023-04-25T10:21:15;1.08;;;0.20;;
69523;SDS011;56723;42.694;23.286;2023-04-25T10:23:42;1.38;;;0.20;;
69523;SDS011;56723;42.694;23.286;2023-04-25T10:28:55;1.27;;;0.30;;
69523;SDS011;56723;42.694;23.286;2023-04-25T10:31:23;1.65;;;0.55;;
69523;SDS011;56723;42.694;23.286;2023-04-25T10:33:50;0.88;;;0.20;;
69523;SDS011;56723;42.694;23.286;2023-04-25T10:36:18;4.38;;;2.45;;
69523;SDS011;56723;42.694;23.286;2023-04-25T10:38:48;1.35;;;0.30;;
69523;SDS011;56723;42.694;23.286;2023-04-25T10:41:19;1.92;;;0.30;;
69523;SDS011;56723;42.694;23.286;2023-04-25T10:43:48;1.30;;;0.20;;
69523;SDS011;56723;42.694;23.286;2023-04-25T10:49:02;2.78;;;0.25;;
69523;SDS011;56723;42.694;23.286;2023-04-25T10:51:40;1.25;;;0.30;;
69523;SDS011;56723;42.694;23.286;2023-04-25T10:54:21;0.68;;;0.20;;
69523;SDS011;56723;42.694;23.286;2023-04-25T10:56:51;1.85;;;0.40;;
69523;SDS011;56723;42.694;23.286;2023-04-25T10:59:19;0.50;;;0.10;;
69523;SDS011;56723;42.694;23.286;2023-04-25T11:01:56;0.50;;;0.20;;
69523;SDS011;56723;42.694;23.286;2023-04-25T11:09:33;0.70;;;0.10;;
69523;SDS011;56723;42.694;23.286;2023-04-25T11:14:29;0.70;;;0.10;;
69523;SDS011;56723;42.694;23.286;2023-04-25T11:16:56;1.17;;;0.20;;
69523;SDS011;56723;42.694;23.286;2023-04-25T11:19:44;0.45;;;0.10;;
69523;SDS011;56723;42.694;23.286;2023-04-25T11:22:15;2.72;;;0.10;;
69523;SDS011;56723;42.694;23.286;2023-04-25T11:24:42;0.63;;;0.20;;
69523;SDS011;56723;42.694;23.286;2023-04-25T11:27:09;2.20;;;0.30;;
69523;SDS011;56723;42.694;23.286;2023-04-25T11:29:36;4.53;;;0.10;;
69523;SDS011;56723;42.694;23.286;2023-04-25T11:32:04;0.68;;;0.10;;
69523;SDS011;56723;42.694;23.286;2023-04-25T11:34:31;1.30;;;0.32;;
69523;SDS011;56723;42.694;23.286;2023-04-25T11:37:00;0.77;;;0.20;;
69523;SDS011;56723;42.694;23.286;2023-04-25T11:41:55;1.60;;;0.10;;
69523;SDS011;56723;42.694;23.286;2023-04-25T11:44:23;0.68;;;0.10;;
69523;SDS011;56723;42.694;23.286;2023-04-25T11:46:50;0.85;;;0.30;;
69523;SDS011;56723;42.694;23.286;2023-04-25T11:49:17;1.05;;;0.20;;
69523;SDS011;56723;42.694;23.286;2023-04-25T11:51:45;1.15;;;0.20;;
69523;SDS011;56723;42.694;23.286;2023-04-25T11:54:14;2.15;;;0.20;;
69523;SDS011;56723;42.694;23.286;2023-04-25T11:56:42;0.95;;;0.10;;
69523;SDS011;56723;42.694;23.286;2023-04-25T11:59:09;0.50;;;0.20;;
69523;SDS011;56723;42.694;23.286;2023-04-25T12:01:38;0.57;;;0.20;;
69523;SDS011;56723;42.694;23.286;2023-04-25T12:04:10;0.70;;;0.10;;
69523;SDS011;56723;42.694;23.286;2023-04-25T12:06:40;0.35;;;0.15;;
69523;SDS011;56723;42.694;23.286;2023-04-25T12:09:12;0.70;;;0.20;;
69523;SDS011;56723;42.694;23.286;2023-04-25T12:11:45;1.10;;;0.10;;
69523;SDS011;56723;42.694;23.286;2023-04-25T12:14:20;0.73;;;0.10;;
69523;SDS011;56723;42.694;23.286;2023-04-25T12:16:57;0.60;;;0.10;;
69523;SDS011;56723;42.694;23.286;2023-04-25T12:19:29;0.82;;;0.10;;
69523;SDS011;56723;42.694;23.286;2023-04-25T12:22:00;0.85;;;0.13;;
69523;SDS011;56723;42.694;23.286;2023-04-25T12:24:32;0.50;;;0.17;;
69523;SDS011;56723;42.694;23.286;2023-04-25T12:27:04;0.75;;;0.30;;
69523;SDS011;56723;42.694;23.286;2023-04-25T12:29:33;1.02;;;0.20;;
69523;SDS011;56723;42.694;23.286;2023-04-25T12:32:14;1.88;;;0.20;;
69523;SDS011;56723;42.694;23.286;2023-04-25T12:34:42;3.28;;;0.38;;
69523;SDS011;56723;42.694;23.286;2023-04-25T12:37:09;3.42;;;0.38;;
69523;SDS011;56723;42.694;23.286;2023-04-25T12:39:37;2.85;;;0.30;;
69523;SDS011;56723;42.694;23.286;2023-04-25T12:42:04;1.30;;;0.20;;
69523;SDS011;56723;42.694;23.286;2023-04-25T12:44:35;1.23;;;0.20;;
69523;SDS011;56723;42.694;23.286;2023-04-25T12:47:02;3.28;;;0.10;;
69523;SDS011;56723;42.694;23.286;2023-04-25T12:49:29;1.25;;;0.20;;
69523;SDS011;56723;42.694;23.286;2023-04-25T12:51:57;2.17;;;0.35;;
69523;SDS011;56723;42.694;23.286;2023-04-25T12:54:24;1.48;;;0.30;;
69523;SDS011;56723;42.694;23.286;2023-04-25T13:51:22;3.17;;;1.88;;
69523;SDS011;56723;42.694;23.286;2023-04-25T13:53:49;4.05;;;1.70;;
69523;SDS011;56723;42.694;23.286;2023-04-25T13:56:17;4.95;;;1.48;;
69523;SDS011;56723;42.694;23.286;2023-04-25T13:58:46;2.17;;;1.00;;
69523;SDS011;56723;42.694;23.286;2023-04-25T14:01:13;2.92;;;1.50;;
69523;SDS011;56723;42.694;23.286;2023-04-25T14:03:40;2.95;;;1.02;;
69523;SDS011;56723;42.694;23.286;2023-04-25T14:06:08;1.55;;;0.70;;
69523;SDS011;56723;42.694;23.286;2023-04-25T14:08:35;1.45;;;0.30;;
69523;SDS011;56723;42.694;23.286;2023-04-25T14:11:02;1.38;;;0.60;;
69523;SDS011;56723;42.694;23.286;2023-04-25T14:13:29;1.17;;;0.47;;
69523;SDS011;56723;42.694;23.286;2023-04-25T14:15:56;2.95;;;0.63;;
69523;SDS011;56723;42.694;23.286;2023-04-25T14:18:24;1.45;;;0.30;;
69523;SDS011;56723;42.694;23.286;2023-04-25T14:20:51;3.10;;;0.40;;
69523;SDS011;56723;42.694;23.286;2023-04-25T14:23:18;0.68;;;0.30;;
69523;SDS011;56723;42.694;23.286;2023-04-25T14:25:45;1.27;;;0.45;;
69523;SDS011;56723;42.694;23.286;2023-04-25T14:28:12;1.42;;;0.70;;
69523;SDS011;56723;42.694;23.286;2023-04-25T14:30:39;2.28;;;0.30;;
69523;SDS011;56723;42.694;23.286;2023-04-25T14:33:06;2.53;;;0.40;;
69523;SDS011;56723;42.694;23.286;2023-04-25T14:35:33;2.78;;;2.42;;
69523;SDS011;56723;42.694;23.286;2023-04-25T14:38:00;1.25;;;0.75;;
69523;SDS011;56723;42.694;23.286;2023-04-25T14:40:27;1.33;;;0.82;;
69523;SDS011;56723;42.694;23.286;2023-04-25T14:42:54;2.15;;;0.70;;
69523;SDS011;56723;42.694;23.286;2023-04-25T14:45:21;2.28;;;1.10;;
69523;SDS011;56723;42.694;23.286;2023-04-25T14:47:48;2.08;;;1.30;;
69523;SDS011;56723;42.694;23.286;2023-04-25T14:50:16;3.22;;;1.88;;
69523;SDS011;56723;42.694;23.286;2023-04-25T14:52:43;2.13;;;1.45;;
69523;SDS011;56723;42.694;23.286;2023-04-25T14:55:11;4.70;;;2.90;;
69523;SDS011;56723;42.694;23.286;2023-04-25T14:57:38;3.08;;;1.45;;
69523;SDS011;56723;42.694;23.286;2023-04-25T15:00:06;3.55;;;1.83;;
69523;SDS011;56723;42.694;23.286;2023-04-25T15:02:36;2.83;;;1.67;;
69523;SDS011;56723;42.694;23.286;2023-04-25T15:05:03;4.88;;;3.50;;
69523;SDS011;56723;42.694;23.286;2023-04-25T15:07:31;46.13;;;31.60;;
69523;SDS011;56723;42.694;23.286;2023-04-25T15:09:58;8.75;;;5.68;;
69523;SDS011;56723;42.694;23.286;2023-04-25T15:12:25;21.67;;;15.60;;
69523;SDS011;56723;42.694;23.286;2023-04-25T15:14:55;9.32;;;5.10;;
69523;SDS011;56723;42.694;23.286;2023-04-25T15:17:25;5.10;;;3.70;;
69523;SDS011;56723;42.694;23.286;2023-04-25T15:19:57;3.70;;;2.58;;
69523;SDS011;56723;42.694;23.286;2023-04-25T15:22:24;1.00;;;0.47;;
69523;SDS011;56723;42.694;23.286;2023-04-25T15:24:51;2.05;;;0.57;;
69523;SDS011;56723;42.694;23.286;2023-04-25T15:27:18;2.47;;;0.50;;
69523;SDS011;56723;42.694;23.286;2023-04-25T15:29:48;2.58;;;0.68;;
69523;SDS011;56723;42.694;23.286;2023-04-25T15:32:15;1.25;;;0.50;;
69523;SDS011;56723;42.694;23.286;2023-04-25T15:34:42;1.45;;;0.63;;
69523;SDS011;56723;42.694;23.286;2023-04-25T15:37:09;1.23;;;0.40;;
69523;SDS011;56723;42.694;23.286;2023-04-25T15:39:37;2.55;;;0.60;;
69523;SDS011;56723;42.694;23.286;2023-04-25T15:42:04;2.03;;;0.30;;
69523;SDS011;56723;42.694;23.286;2023-04-25T15:44:31;2.70;;;0.22;;
69523;SDS011;56723;42.694;23.286;2023-04-25T15:51:19;2.63;;;1.00;;
69523;SDS011;56723;42.694;23.286;2023-04-25T15:53:46;6.53;;;2.30;;
69523;SDS011;56723;42.694;23.286;2023-04-25T16:14:53;3.55;;;1.45;;
69523;SDS011;56723;42.694;23.286;2023-04-25T16:17:21;4.32;;;1.67;;
69523;SDS011;56723;42.694;23.286;2023-04-25T16:19:48;2.83;;;1.35;;
